foto1
foto1
foto1
foto1
foto1

TAF LFBZ

TAF LFBZ 211700Z 2118/2218 26010KT 9999 BKN040 PROB30 TEMPO 2118/2121 29018G30KT 5000 -SHRA BKN014 PROB40 TEMPO 2121/2212 29018G30KT 3000 SHRA BKN014 BKN030TCU BECMG 2212/2214 32010KT SCT050

Accès Membres

Bienvenue sur le site de l'aéroclub Dassault Bréguet Biarritz.

L'aéroclub Dassault Breguet Biarritz est installé sur l'aéroport de Biarritz-Parme (LFBZ). Il a pour objectif de permettre à ses membres de découvrir le vol à moteur.

Vous trouverez sur ce site toutes les informations afin de découvrir notre activité. 

Les membres pourront se connecter pour accéder à certains éléments permettant de préparer un vol.

Bonne visite.

Plan d'accès:

 Logo Aéroclub

Réserver un avion

Pour réserver un avion cliquer sur le logo Openflyers

logo openflyers